Time;durP1;ratioP1;P1;durP2;ratioP2;P2;SDS_P1;SDS_P2;PMS_P1;PMS_P2;Temp;Humidity;BMP_temperature;BMP_pressure;BME280_temperature;BME280_humidity;BME280_pressure;Samples;Min_cycle;Max_cycle;Signal;HPM_P1;HPM_P2
2022/12/23 00:00:36;;;;;;;22.10;13.97;;;4.70;99.90;;;;;;5010779;28;20650;-77
2022/12/23 00:03:02;;;;;;;23.10;15.23;;;4.80;99.90;;;;;;5010334;28;20190;-81
2022/12/23 00:05:28;;;;;;;21.57;13.77;;;4.80;99.90;;;;;;5011322;28;20195;-77
2022/12/23 00:07:54;;;;;;;21.00;13.80;;;4.80;99.90;;;;;;5011298;28;20245;-80
2022/12/23 00:10:19;;;;;;;22.30;13.20;;;4.80;99.90;;;;;;5009760;28;20661;-79
2022/12/23 00:15:29;;;;;;;23.47;14.27;;;4.90;99.90;;;;;;5011047;28;20189;-79
2022/12/23 00:17:54;;;;;;;23.03;12.93;;;5.10;99.90;;;;;;5011103;28;20255;-78
2022/12/23 00:20:20;;;;;;;23.07;14.07;;;5.20;99.90;;;;;;5010581;28;20187;-79
2022/12/23 00:23:03;;;;;;;21.47;13.70;;;5.20;99.90;;;;;;5009568;28;20180;-79
2022/12/23 00:25:41;;;;;;;19.77;11.90;;;5.20;99.90;;;;;;5009310;28;20653;-80
2022/12/23 00:28:11;;;;;;;21.23;13.47;;;5.10;99.90;;;;;;5009320;28;20185;-77
2022/12/23 00:30:43;;;;;;;22.70;13.23;;;5.20;99.90;;;;;;5010279;28;20245;-78
2022/12/23 00:33:09;;;;;;;19.57;12.57;;;5.20;99.90;;;;;;5008167;28;20227;-79
2022/12/23 00:35:35;;;;;;;20.73;12.70;;;5.30;99.90;;;;;;5010383;28;20190;-77
2022/12/23 00:38:00;;;;;;;18.57;12.37;;;5.40;99.90;;;;;;5008223;28;20262;-79
2022/12/23 00:43:10;;;;;;;21.70;12.80;;;5.40;99.90;;;;;;5009258;28;20218;-80
2022/12/23 00:45:35;;;;;;;18.33;12.07;;;5.40;99.90;;;;;;5008628;28;20175;-80
2022/12/23 00:50:45;;;;;;;17.70;11.83;;;5.40;99.90;;;;;;5007652;28;21046;-77
2022/12/23 00:53:11;;;;;;;20.30;12.30;;;5.40;99.90;;;;;;5007235;28;20203;-79
2022/12/23 00:55:36;;;;;;;18.00;11.97;;;5.40;99.90;;;;;;5007687;28;20180;-79
2022/12/23 00:58:02;;;;;;;18.07;12.30;;;5.50;99.90;;;;;;5008036;28;20188;-80
2022/12/23 01:05:59;;;;;;;18.30;11.53;;;5.50;99.90;;;;;;5008856;28;20217;-78
2022/12/23 01:08:24;;;;;;;16.70;10.97;;;5.50;99.90;;;;;;5007753;28;21223;-77
2022/12/23 01:10:50;;;;;;;19.03;11.50;;;5.60;99.90;;;;;;5009664;28;20271;-79
2022/12/23 01:13:16;;;;;;;15.43;10.87;;;5.70;99.90;;;;;;5008950;28;21029;-77
2022/12/23 01:15:42;;;;;;;20.30;11.67;;;5.80;99.90;;;;;;5007356;28;20282;-79
2022/12/23 01:18:07;;;;;;;18.33;11.50;;;5.70;99.90;;;;;;5007430;28;20179;-79
2022/12/23 01:20:33;;;;;;;17.97;11.80;;;5.90;99.90;;;;;;5007924;28;20211;-79
2022/12/23 01:22:58;;;;;;;20.27;12.60;;;5.80;99.90;;;;;;5007364;28;20187;-78
2022/12/23 01:25:24;;;;;;;20.93;12.10;;;5.80;99.90;;;;;;5008931;28;20195;-78
2022/12/23 01:27:49;;;;;;;21.40;11.97;;;5.80;99.90;;;;;;5007310;28;20188;-77
2022/12/23 01:30:15;;;;;;;18.53;11.97;;;5.80;99.90;;;;;;5009057;28;20203;-77
2022/12/23 01:32:40;;;;;;;17.87;11.57;;;5.90;99.90;;;;;;5007920;28;20210;-78
2022/12/23 01:35:06;;;;;;;19.87;12.30;;;6.00;99.90;;;;;;5008497;28;20314;-79
2022/12/23 01:37:32;;;;;;;18.00;11.93;;;5.90;99.90;;;;;;5006716;28;20677;-79
2022/12/23 01:39:57;;;;;;;20.70;11.70;;;5.90;99.90;;;;;;5008574;28;20215;-78
2022/12/23 01:45:15;;;;;;;17.40;11.67;;;6.00;99.90;;;;;;5008153;28;20636;-78
2022/12/23 01:47:57;;;;;;;17.20;11.53;;;5.90;99.90;;;;;;5007817;28;20196;-78
2022/12/23 01:50:41;;;;;;;14.37;10.00;;;5.90;99.90;;;;;;5008498;28;20208;-79
2022/12/23 01:53:20;;;;;;;15.97;10.70;;;5.90;99.90;;;;;;5007511;28;20398;-80
2022/12/23 01:56:08;;;;;;;15.27;9.70;;;5.90;99.90;;;;;;5005815;28;20189;-79
2022/12/23 01:58:39;;;;;;;14.60;10.33;;;6.00;99.90;;;;;;5000255;28;20238;-77
2022/12/23 02:03:56;;;;;;;14.37;10.10;;;6.00;99.90;;;;;;5007761;28;20238;-77
2022/12/23 02:09:25;;;;;;;13.57;9.13;;;6.00;99.90;;;;;;5007595;28;20242;-78
2022/12/23 02:11:59;;;;;;;14.20;9.43;;;6.00;99.90;;;;;;5007177;28;20184;-78
2022/12/23 02:18:12;;;;;;;12.77;8.47;;;6.10;99.90;;;;;;5007189;28;20659;-81
2022/12/23 02:21:30;;;;;;;13.40;8.43;;;6.10;99.90;;;;;;5007151;28;20179;-79
2022/12/23 02:24:21;;;;;;;15.17;9.47;;;6.10;99.90;;;;;;4959175;28;20213;-78
2022/12/23 02:27:13;;;;;;;11.17;8.47;;;6.10;99.90;;;;;;4958954;28;20192;-80
2022/12/23 02:30:01;;;;;;;11.07;7.73;;;6.20;99.90;;;;;;5005030;28;20227;-78
2022/12/23 02:32:45;;;;;;;10.33;7.07;;;6.20;99.90;;;;;;5005429;28;20199;-78
2022/12/23 02:35:19;;;;;;;10.03;6.40;;;6.40;99.90;;;;;;5005537;28;20203;-78
2022/12/23 02:38:08;;;;;;;8.73;6.40;;;6.40;99.90;;;;;;5005133;28;20186;-79
2022/12/23 02:41:00;;;;;;;9.63;6.17;;;6.50;99.90;;;;;;5023058;28;20204;-77
2022/12/23 02:43:45;;;;;;;10.80;5.90;;;6.70;99.90;;;;;;5008654;28;20275;-79
2022/12/23 02:46:16;;;;;;;8.30;5.40;;;6.70;99.90;;;;;;5007951;28;20255;-79
2022/12/23 02:48:48;;;;;;;6.27;4.83;;;6.80;99.90;;;;;;5008257;28;21228;-78
2022/12/23 02:51:15;;;;;;;7.33;4.80;;;6.90;99.90;;;;;;5007716;28;20290;-78
2022/12/23 02:53:49;;;;;;;7.50;5.00;;;7.00;99.90;;;;;;5006912;28;20231;-79
2022/12/23 02:56:18;;;;;;;6.37;4.93;;;7.10;99.90;;;;;;5008487;28;20618;-79
2022/12/23 02:58:52;;;;;;;6.83;4.90;;;7.20;99.90;;;;;;5008602;28;20191;-77
2022/12/23 03:01:19;;;;;;;8.03;5.50;;;7.30;99.90;;;;;;5023063;28;20187;-78
2022/12/23 03:03:46;;;;;;;8.37;5.23;;;7.20;99.90;;;;;;5007755;28;20213;-77
2022/12/23 03:06:37;;;;;;;5.70;4.87;;;7.20;99.90;;;;;;5007162;28;20461;-77
2022/12/23 03:09:03;;;;;;;9.03;5.57;;;7.30;99.90;;;;;;5000211;28;20234;-79
2022/12/23 03:12:00;;;;;;;7.67;5.00;;;7.20;99.90;;;;;;5005810;28;20191;-77
2022/12/23 03:14:37;;;;;;;9.77;4.63;;;7.30;99.90;;;;;;5011074;28;20290;-79
2022/12/23 03:17:09;;;;;;;7.57;4.60;;;7.20;99.90;;;;;;5009029;28;20183;-80
2022/12/23 03:19:46;;;;;;;4.97;4.07;;;7.60;99.90;;;;;;5011679;28;20638;-80
2022/12/23 03:22:12;;;;;;;6.30;4.50;;;7.40;99.90;;;;;;5010259;28;20565;-79
2022/12/23 03:24:54;;;;;;;4.93;4.30;;;7.40;99.90;;;;;;5009760;28;20215;-78
2022/12/23 03:27:39;;;;;;;5.70;3.93;;;7.40;99.90;;;;;;5010860;28;20198;-78
2022/12/23 03:30:07;;;;;;;7.63;4.60;;;7.40;99.90;;;;;;5011245;28;20567;-79
2022/12/23 03:32:40;;;;;;;5.37;4.60;;;7.50;99.90;;;;;;5025210;28;20199;-80
2022/12/23 03:35:08;;;;;;;5.83;4.77;;;7.50;99.90;;;;;;5025407;28;20195;-78
2022/12/23 03:37:37;;;;;;;8.03;4.80;;;7.50;99.90;;;;;;5008666;28;20208;-79
2022/12/23 03:40:16;;;;;;;6.13;4.40;;;7.50;99.90;;;;;;5025551;28;20183;-79
2022/12/23 03:42:45;;;;;;;6.30;4.03;;;7.60;99.90;;;;;;5010493;28;20294;-79
2022/12/23 03:45:25;;;;;;;5.40;4.00;;;7.60;99.90;;;;;;5010091;28;20214;-79
2022/12/23 03:48:05;;;;;;;4.90;4.10;;;7.50;99.90;;;;;;5007865;28;20245;-77
2022/12/23 03:50:34;;;;;;;5.40;4.10;;;7.50;99.90;;;;;;5009971;28;20750;-80
2022/12/23 03:53:29;;;;;;;6.93;4.27;;;7.50;99.90;;;;;;5009068;28;20234;-79
2022/12/23 03:56:00;;;;;;;5.17;4.37;;;7.50;99.90;;;;;;5007960;28;21079;-79
2022/12/23 03:58:40;;;;;;;6.70;3.93;;;7.50;99.90;;;;;;5009671;28;20226;-78
2022/12/23 04:01:20;;;;;;;4.83;3.90;;;7.50;99.90;;;;;;5009388;28;20187;-78
2022/12/23 04:04:00;;;;;;;3.90;3.53;;;7.50;99.90;;;;;;5010030;28;20242;-79
2022/12/23 04:06:32;;;;;;;4.57;3.70;;;7.50;99.90;;;;;;5011471;28;20298;-77
2022/12/23 04:08:58;;;;;;;4.27;3.80;;;7.50;99.90;;;;;;5011186;28;20199;-79
2022/12/23 04:11:24;;;;;;;4.50;3.97;;;7.40;99.90;;;;;;5011652;28;20199;-79
2022/12/23 04:13:50;;;;;;;4.60;4.00;;;7.50;99.90;;;;;;5009992;28;20305;-78
2022/12/23 04:16:15;;;;;;;6.23;4.30;;;7.50;99.90;;;;;;5009566;28;20184;-76
2022/12/23 04:18:41;;;;;;;5.27;4.30;;;7.50;99.90;;;;;;5011276;28;20188;-78
2022/12/23 04:21:06;;;;;;;4.57;4.07;;;7.50;99.90;;;;;;5009713;28;20194;-79
2022/12/23 04:23:32;;;;;;;6.37;4.47;;;7.50;99.90;;;;;;5010867;28;20301;-78
2022/12/23 04:25:57;;;;;;;5.40;4.40;;;7.50;99.90;;;;;;5007883;28;20241;-77
2022/12/23 04:28:23;;;;;;;4.93;4.43;;;7.50;99.90;;;;;;5008158;28;20184;-76
2022/12/23 04:30:49;;;;;;;4.43;3.93;;;7.60;99.90;;;;;;5009616;28;20246;-77
2022/12/23 04:33:14;;;;;;;4.83;3.93;;;7.60;99.90;;;;;;5009692;28;20293;-76
2022/12/23 04:35:40;;;;;;;5.20;4.13;;;7.50;99.90;;;;;;5009715;28;20191;-79
2022/12/23 04:38:05;;;;;;;5.70;4.17;;;7.50;99.90;;;;;;5007698;28;20799;-78
2022/12/23 04:40:31;;;;;;;4.80;4.37;;;7.50;99.90;;;;;;5009457;28;20191;-79
2022/12/23 04:42:56;;;;;;;5.80;4.60;;;7.50;99.90;;;;;;5008976;28;20184;-77
2022/12/23 04:45:22;;;;;;;5.73;4.70;;;7.60;99.90;;;;;;5009665;28;20202;-78
2022/12/23 04:47:47;;;;;;;7.17;4.97;;;7.60;99.90;;;;;;5008424;28;20258;-78
2022/12/23 04:50:15;;;;;;;5.33;4.73;;;7.70;99.90;;;;;;5008742;28;20219;-79
2022/12/23 04:52:41;;;;;;;8.07;6.00;;;7.70;99.90;;;;;;5007288;28;20180;-78
2022/12/23 04:55:07;;;;;;;8.20;6.10;;;7.80;99.90;;;;;;5007375;28;20203;-77
2022/12/23 04:57:33;;;;;;;10.70;6.63;;;7.70;99.90;;;;;;5007520;28;20176;-79
2022/12/23 04:59:59;;;;;;;11.67;6.70;;;7.80;99.90;;;;;;5008851;28;20194;-77
2022/12/23 05:02:24;;;;;;;10.83;6.77;;;7.80;99.90;;;;;;5007843;28;20180;-78
2022/12/23 05:04:50;;;;;;;8.27;6.50;;;7.80;99.90;;;;;;5007348;28;20245;-77
2022/12/23 05:07:15;;;;;;;11.77;7.33;;;7.80;99.90;;;;;;5008211;28;20237;-79
2022/12/23 05:09:41;;;;;;;13.10;7.57;;;7.80;99.90;;;;;;5007641;28;20245;-79
2022/12/23 05:12:06;;;;;;;12.17;7.50;;;7.80;99.90;;;;;;5008223;28;20191;-78
2022/12/23 05:14:32;;;;;;;12.10;7.10;;;7.80;99.90;;;;;;5008796;28;20203;-80
2022/12/23 05:16:57;;;;;;;14.03;7.47;;;7.80;99.90;;;;;;5008120;28;20257;-78
2022/12/23 05:19:23;;;;;;;11.93;7.53;;;7.80;99.90;;;;;;5007827;28;20267;-76
2022/12/23 05:21:48;;;;;;;10.30;6.90;;;7.80;99.90;;;;;;5007542;28;20187;-78
2022/12/23 05:24:14;;;;;;;12.17;7.13;;;7.70;99.90;;;;;;5007429;28;20199;-78
2022/12/23 05:26:39;;;;;;;10.90;7.23;;;7.70;99.90;;;;;;5008324;28;20188;-77
2022/12/23 05:29:05;;;;;;;10.67;7.00;;;7.70;99.90;;;;;;5006762;28;20804;-78
2022/12/23 05:31:31;;;;;;;11.73;6.90;;;7.80;99.90;;;;;;5008755;28;20276;-79
2022/12/23 05:33:56;;;;;;;11.20;6.87;;;8.00;99.90;;;;;;5007155;28;20203;-79
2022/12/23 05:36:22;;;;;;;11.77;7.53;;;8.10;99.90;;;;;;5006468;28;20223;-77
2022/12/23 05:38:47;;;;;;;10.43;7.20;;;8.10;99.90;;;;;;5007405;28;20279;-80
2022/12/23 05:41:15;;;;;;;12.10;8.87;;;7.90;99.90;;;;;;5007773;28;20198;-78
2022/12/23 05:43:40;;;;;;;10.23;7.80;;;8.00;99.90;;;;;;5008072;28;20219;-78
2022/12/23 05:46:06;;;;;;;11.27;7.70;;;7.90;99.90;;;;;;5022555;28;20784;-78
2022/12/23 05:48:31;;;;;;;10.10;7.40;;;7.80;99.90;;;;;;5008418;28;20192;-79
2022/12/23 05:50:57;;;;;;;10.37;7.40;;;7.80;99.90;;;;;;5007772;28;20188;-79
2022/12/23 05:53:23;;;;;;;9.73;6.73;;;8.10;99.90;;;;;;5007812;28;20212;-79
2022/12/23 05:55:49;;;;;;;9.67;7.77;;;7.90;99.90;;;;;;5006573;28;20195;-79
2022/12/23 05:58:15;;;;;;;10.53;7.57;;;7.80;99.90;;;;;;5007362;28;20180;-78
2022/12/23 06:00:40;;;;;;;9.73;7.40;;;7.70;99.90;;;;;;5006781;28;20353;-77
2022/12/23 06:03:06;;;;;;;9.67;6.90;;;7.70;99.90;;;;;;5007572;28;20270;-76
2022/12/23 06:05:31;;;;;;;7.97;6.27;;;7.70;99.90;;;;;;5007141;28;20202;-79
2022/12/23 06:07:57;;;;;;;7.90;6.07;;;7.60;99.90;;;;;;5007531;28;20249;-78
2022/12/23 06:10:22;;;;;;;8.40;6.93;;;7.60;99.90;;;;;;5007438;28;20209;-79
2022/12/23 06:12:48;;;;;;;14.67;13.13;;;7.60;99.90;;;;;;5005987;28;20260;-79
2022/12/23 06:15:14;;;;;;;10.90;9.40;;;7.60;99.90;;;;;;5007462;28;20195;-78
2022/12/23 06:17:40;;;;;;;10.77;9.00;;;7.70;99.90;;;;;;5007562;28;20180;-77
2022/12/23 06:20:06;;;;;;;12.57;11.07;;;7.70;99.90;;;;;;5007237;28;20188;-77
2022/12/23 06:22:32;;;;;;;11.17;9.10;;;7.70;99.90;;;;;;5005263;28;20203;-80
2022/12/23 06:24:57;;;;;;;10.50;8.83;;;7.70;99.90;;;;;;5005700;28;20697;-77
2022/12/23 06:27:23;;;;;;;13.57;9.73;;;7.70;99.90;;;;;;5005460;28;20614;-79
2022/12/23 06:29:48;;;;;;;10.97;8.63;;;7.60;99.90;;;;;;5005702;28;20582;-78
2022/12/23 06:32:14;;;;;;;15.33;9.63;;;7.60;99.90;;;;;;5006601;28;20278;-79
2022/12/23 06:34:39;;;;;;;14.68;12.15;;;7.50;99.90;;;;;;5005674;28;20502;-77
2022/12/23 06:37:05;;;;;;;13.30;9.83;;;7.60;99.90;;;;;;5005013;28;20184;-79
2022/12/23 06:39:31;;;;;;;14.50;9.60;;;7.60;99.90;;;;;;5006941;28;21097;-80
2022/12/23 06:41:57;;;;;;;14.40;9.97;;;7.60;99.90;;;;;;5005005;28;20188;-77
2022/12/23 06:44:22;;;;;;;19.40;12.00;;;7.50;99.90;;;;;;5007753;28;20619;-79
2022/12/23 06:46:48;;;;;;;28.03;22.37;;;7.50;99.90;;;;;;5003982;28;20184;-77
2022/12/23 06:49:14;;;;;;;18.27;12.83;;;7.50;99.90;;;;;;5004597;28;20203;-80
2022/12/23 06:51:40;;;;;;;16.23;11.53;;;7.50;99.90;;;;;;5006121;28;20183;-79
2022/12/23 06:54:05;;;;;;;15.33;10.10;;;7.50;99.90;;;;;;5005718;28;20207;-80
2022/12/23 06:56:33;;;;;;;18.80;11.03;;;7.40;99.90;;;;;;5007582;28;20191;-76
2022/12/23 06:58:58;;;;;;;14.23;10.07;;;7.40;99.90;;;;;;5006943;28;20343;-79
2022/12/23 07:01:24;;;;;;;16.33;10.37;;;7.40;99.90;;;;;;5006769;28;20824;-79
2022/12/23 07:03:49;;;;;;;16.23;11.23;;;7.40;99.90;;;;;;5005706;28;20620;-78
2022/12/23 07:06:15;;;;;;;16.23;11.00;;;7.40;99.90;;;;;;5005439;28;20673;-79
2022/12/23 07:08:40;;;;;;;14.20;10.30;;;7.40;99.90;;;;;;5005783;28;20282;-78
2022/12/23 07:11:07;;;;;;;11.90;9.10;;;7.30;99.90;;;;;;5005230;28;20646;-79
2022/12/23 07:13:33;;;;;;;12.20;8.87;;;7.30;99.90;;;;;;5005421;28;20195;-76
2022/12/23 07:16:04;;;;;;;11.77;8.20;;;7.30;99.90;;;;;;5007253;28;20259;-78
2022/12/23 07:18:30;;;;;;;14.87;10.63;;;7.30;99.90;;;;;;5005544;28;20179;-77
2022/12/23 07:20:59;;;;;;;41.03;24.90;;;7.30;99.90;;;;;;5005119;28;20183;-78
2022/12/23 07:23:24;;;;;;;22.83;16.60;;;7.30;99.90;;;;;;5007905;28;20685;-77
2022/12/23 07:25:50;;;;;;;19.63;14.63;;;7.30;99.90;;;;;;5007427;28;20186;-78
2022/12/23 07:28:15;;;;;;;17.87;13.10;;;7.40;99.90;;;;;;5006543;28;20180;-77
2022/12/23 07:30:41;;;;;;;18.80;14.30;;;7.40;99.90;;;;;;5007123;28;20200;-79
2022/12/23 07:33:07;;;;;;;21.00;14.30;;;7.40;99.90;;;;;;5005577;28;20199;-77
2022/12/23 07:35:32;;;;;;;19.07;14.30;;;7.40;99.90;;;;;;5006785;28;20192;-78
2022/12/23 07:37:58;;;;;;;20.13;14.10;;;7.30;99.90;;;;;;5006684;28;20212;-82
2022/12/23 07:40:25;;;;;;;22.47;15.73;;;7.30;99.90;;;;;;5005604;28;20207;-80
2022/12/23 07:42:56;;;;;;;20.77;16.00;;;7.20;99.90;;;;;;5005341;28;20557;-78
2022/12/23 07:45:22;;;;;;;23.63;17.77;;;7.20;99.90;;;;;;5005962;28;20314;-78
2022/12/23 07:47:52;;;;;;;30.30;23.93;;;7.20;99.90;;;;;;5006366;28;20286;-80
2022/12/23 07:50:17;;;;;;;26.73;20.50;;;7.20;99.90;;;;;;5006745;28;20204;-79
2022/12/23 07:52:43;;;;;;;25.53;17.33;;;7.30;99.90;;;;;;5006328;28;20195;-81
2022/12/23 07:55:09;;;;;;;22.73;16.17;;;7.20;99.90;;;;;;5006864;28;20208;-81
2022/12/23 07:57:36;;;;;;;19.43;14.80;;;7.20;99.90;;;;;;5004692;28;20270;-78
2022/12/23 08:00:08;;;;;;;24.20;17.37;;;7.20;99.90;;;;;;5009029;28;20172;-81
2022/12/23 08:02:34;;;;;;;27.30;17.23;;;7.20;99.90;;;;;;5010118;28;20286;-77
2022/12/23 08:04:59;;;;;;;22.40;16.47;;;7.20;99.90;;;;;;5009421;28;20312;-84
2022/12/23 08:07:25;;;;;;;22.83;17.50;;;7.20;99.90;;;;;;5009083;28;20203;-77
2022/12/23 08:09:51;;;;;;;24.00;17.83;;;7.20;99.90;;;;;;5010528;28;20219;-79
2022/12/23 08:12:16;;;;;;;22.70;16.90;;;7.20;99.90;;;;;;5009888;28;20782;-81
2022/12/23 08:14:42;;;;;;;19.40;14.60;;;7.20;99.90;;;;;;5009596;28;21097;-81
2022/12/23 08:17:07;;;;;;;20.27;15.17;;;7.20;99.90;;;;;;5010754;28;20187;-81
2022/12/23 08:19:33;;;;;;;18.83;15.47;;;7.10;99.90;;;;;;5016592;28;20192;-77
2022/12/23 08:21:59;;;;;;;19.77;15.03;;;7.20;99.90;;;;;;5015579;28;20191;-80
2022/12/23 08:24:25;;;;;;;19.23;15.03;;;7.30;99.90;;;;;;5010184;28;20354;-80
2022/12/23 08:26:51;;;;;;;19.83;15.33;;;7.20;99.90;;;;;;5007920;28;20283;-79
2022/12/23 08:29:16;;;;;;;17.57;13.90;;;7.00;99.90;;;;;;5007819;28;20592;-80
2022/12/23 08:31:42;;;;;;;18.17;14.10;;;7.20;99.90;;;;;;5008306;28;21238;-80
2022/12/23 08:34:07;;;;;;;18.83;14.10;;;7.10;99.90;;;;;;5006262;28;20242;-82
2022/12/23 08:36:34;;;;;;;17.83;13.97;;;7.10;99.90;;;;;;5007884;28;20191;-80
2022/12/23 08:39:03;;;;;;;18.40;13.33;;;7.10;99.90;;;;;;5008411;28;20183;-80
2022/12/23 08:41:32;;;;;;;16.30;12.73;;;7.00;99.90;;;;;;5007544;28;20195;-81
2022/12/23 08:43:58;;;;;;;17.77;13.07;;;7.10;99.90;;;;;;5013286;28;20723;-81
2022/12/23 08:46:24;;;;;;;16.10;12.30;;;7.00;99.90;;;;;;5004642;28;20188;-78
2022/12/23 08:48:50;;;;;;;16.27;12.80;;;7.10;99.90;;;;;;5006085;28;20282;-79
2022/12/23 08:51:17;;;;;;;20.37;13.90;;;7.00;99.90;;;;;;5009043;28;20278;-82
2022/12/23 08:53:43;;;;;;;19.40;16.33;;;7.00;99.90;;;;;;5008426;28;20215;-78
2022/12/23 08:56:14;;;;;;;17.30;12.77;;;7.00;99.90;;;;;;5007930;28;20192;-77
2022/12/23 08:58:42;;;;;;;16.63;12.60;;;7.00;99.90;;;;;;5006181;28;20183;-78
2022/12/23 09:01:11;;;;;;;16.10;11.87;;;7.00;99.90;;;;;;5007819;28;20564;-79
2022/12/23 09:03:38;;;;;;;17.03;12.77;;;7.00;99.90;;;;;;5007540;28;20693;-78
2022/12/23 09:06:22;;;;;;;19.73;13.03;;;7.00;99.90;;;;;;5005434;28;20230;-79
2022/12/23 09:08:48;;;;;;;17.63;11.73;;;7.10;99.90;;;;;;5006674;28;20194;-82
2022/12/23 09:11:17;;;;;;;19.40;13.13;;;7.10;99.90;;;;;;5002102;28;20262;-77
2022/12/23 09:13:43;;;;;;;16.90;13.13;;;7.10;99.90;;;;;;5006167;28;20606;-79
2022/12/23 09:16:10;;;;;;;18.33;13.23;;;7.20;99.90;;;;;;5004450;28;20187;-79
2022/12/23 09:18:36;;;;;;;19.07;14.33;;;7.40;99.90;;;;;;5007160;28;20645;-78
2022/12/23 09:21:05;;;;;;;18.00;13.47;;;7.50;99.90;;;;;;5008731;28;20202;-78
2022/12/23 09:23:31;;;;;;;16.30;12.57;;;7.50;99.90;;;;;;5006325;28;20226;-79
2022/12/23 09:25:57;;;;;;;18.03;13.03;;;7.50;99.90;;;;;;5006629;28;20206;-79
2022/12/23 09:28:23;;;;;;;17.00;13.33;;;7.60;99.90;;;;;;5005599;28;20184;-81
2022/12/23 09:30:49;;;;;;;17.17;13.40;;;7.50;99.90;;;;;;5006776;28;20693;-81
2022/12/23 09:33:16;;;;;;;18.03;13.73;;;7.50;99.90;;;;;;5005061;28;20219;-80
2022/12/23 09:35:41;;;;;;;15.33;12.03;;;7.50;99.90;;;;;;5006084;28;20190;-78
2022/12/23 09:38:07;;;;;;;15.27;12.43;;;7.50;99.90;;;;;;5006614;28;20172;-80
2022/12/23 09:40:35;;;;;;;15.40;12.10;;;7.40;99.90;;;;;;5005300;28;20548;-79
2022/12/23 09:43:05;;;;;;;13.83;11.20;;;7.40;99.90;;;;;;5021299;28;20936;-78
2022/12/23 09:45:56;;;;;;;14.87;11.63;;;7.40;99.90;;;;;;5006987;28;20275;-78
2022/12/23 09:48:27;;;;;;;14.73;11.70;;;7.50;99.90;;;;;;5007197;28;20314;-79
2022/12/23 09:50:53;;;;;;;15.07;12.40;;;7.50;99.90;;;;;;5006538;28;20199;-79
2022/12/23 09:53:24;;;;;;;15.80;12.40;;;7.60;99.90;;;;;;5004959;28;20200;-80
2022/12/23 09:55:54;;;;;;;14.60;12.03;;;7.50;99.90;;;;;;5006935;28;20202;-77
2022/12/23 09:58:35;;;;;;;14.00;11.27;;;7.50;99.90;;;;;;5005379;28;20188;-82
2022/12/23 10:01:27;;;;;;;13.40;11.27;;;7.60;99.90;;;;;;5008360;28;20225;-82
2022/12/23 10:04:07;;;;;;;13.77;11.47;;;7.60;99.90;;;;;;5005822;28;20191;-82
2022/12/23 10:06:35;;;;;;;15.40;11.90;;;7.50;99.90;;;;;;5020110;28;20762;-84
2022/12/23 10:09:03;;;;;;;15.13;12.07;;;7.50;99.90;;;;;;5007135;28;20211;-82
2022/12/23 10:11:32;;;;;;;14.03;11.20;;;7.40;99.90;;;;;;5007382;28;20238;-83
2022/12/23 10:14:02;;;;;;;15.67;12.37;;;7.40;99.90;;;;;;5006953;28;20701;-82
2022/12/23 10:16:40;;;;;;;17.77;13.93;;;7.40;99.90;;;;;;5006024;28;20575;-82
2022/12/23 10:19:13;;;;;;;18.90;14.50;;;7.50;99.90;;;;;;5006218;28;20272;-83
2022/12/23 10:21:48;;;;;;;19.00;14.37;;;7.60;99.90;;;;;;5007016;28;20230;-83
2022/12/23 10:24:17;;;;;;;16.57;13.77;;;7.60;99.90;;;;;;5006602;28;20213;-84
2022/12/23 10:26:53;;;;;;;15.07;12.47;;;7.90;99.90;;;;;;5006495;28;20262;-83
2022/12/23 10:29:24;;;;;;;17.60;13.73;;;8.00;99.90;;;;;;5008013;28;20211;-79
2022/12/23 10:31:53;;;;;;;13.90;11.43;;;8.00;99.90;;;;;;5005559;28;20199;-78
2022/12/23 10:34:27;;;;;;;14.53;11.93;;;8.10;77.70;;;;;;5003306;28;20634;-78
2022/12/23 10:37:07;;;;;;;13.87;11.37;;;8.10;29.40;;;;;;5002195;28;20179;-78
2022/12/23 10:40:07;;;;;;;16.17;13.33;;;8.30;1.00;;;;;;5003904;28;20203;-81
2022/12/23 10:42:40;;;;;;;15.90;13.23;;;8.10;1.00;;;;;;5002061;28;20192;-78
2022/12/23 10:45:22;;;;;;;13.77;11.97;;;7.80;1.00;;;;;;5005072;28;20210;-79
2022/12/23 10:48:02;;;;;;;13.13;11.27;;;8.20;1.00;;;;;;5005737;28;20192;-78
2022/12/23 10:50:46;;;;;;;11.70;10.23;;;8.20;1.00;;;;;;5004101;28;20211;-81
2022/12/23 10:53:18;;;;;;;12.30;10.30;;;8.20;1.00;;;;;;5002730;28;20183;-81
2022/12/23 10:55:44;;;;;;;14.97;13.10;;;8.20;99.90;;;;;;5003619;28;20187;-79
2022/12/23 10:58:17;;;;;;;13.57;11.60;;;8.10;99.90;;;;;;5004226;28;20813;-80
2022/12/23 11:00:50;;;;;;;15.67;12.87;;;8.00;99.90;;;;;;5005415;28;20183;-81
2022/12/23 11:03:31;;;;;;;13.67;11.83;;;8.10;99.90;;;;;;5008339;28;20222;-79
2022/12/23 11:05:59;;;;;;;13.87;11.93;;;8.10;1.00;;;;;;5008775;28;20271;-82
2022/12/23 11:08:27;;;;;;;14.77;12.40;;;9.10;99.90;;;;;;5007894;28;20184;-79
2022/12/23 11:10:54;;;;;;;14.07;12.43;;;8.20;99.90;;;;;;5005250;28;20203;-81
2022/12/23 11:13:44;;;;;;;14.00;12.40;;;8.30;99.90;;;;;;5006200;28;20242;-80
2022/12/23 11:16:17;;;;;;;32.77;12.93;;;8.30;1.00;;;;;;5001751;28;20852;-80
2022/12/23 11:19:01;;;;;;;14.27;12.77;;;8.30;99.90;;;;;;5005685;28;20182;-80
2022/12/23 11:21:28;;;;;;;12.83;11.37;;;8.30;99.90;;;;;;5006531;28;20171;-79
2022/12/23 11:24:16;;;;;;;14.17;11.30;;;8.40;99.90;;;;;;5004867;28;20223;-79
2022/12/23 11:26:48;;;;;;;13.87;11.17;;;8.20;99.90;;;;;;5006565;28;20183;-78
2022/12/23 11:29:22;;;;;;;14.50;11.53;;;8.20;99.90;;;;;;5005144;28;20207;-79
2022/12/23 11:31:48;;;;;;;11.70;10.27;;;6.70;99.90;;;;;;5004183;28;20203;-79
2022/12/23 11:34:20;;;;;;;13.23;10.37;;;8.10;1.00;;;;;;5010713;28;20207;-80
2022/12/23 11:36:57;;;;;;;14.03;11.33;;;8.60;2.20;;;;;;5011416;28;20191;-80
2022/12/23 11:39:31;;;;;;;13.33;10.27;;;8.00;96.50;;;;;;5010966;28;20272;-80
2022/12/23 11:42:11;;;;;;;11.40;9.67;;;7.90;99.90;;;;;;5011710;28;20267;-81
2022/12/23 11:44:47;;;;;;;12.93;10.47;;;7.90;99.90;;;;;;5024094;28;20211;-78
2022/12/23 11:47:37;;;;;;;11.77;10.47;;;7.90;99.90;;;;;;5007849;28;20551;-79
2022/12/23 11:50:31;;;;;;;12.63;10.00;;;7.80;99.90;;;;;;4998920;28;20234;-79
2022/12/23 11:53:11;;;;;;;10.23;8.77;;;7.80;1.00;;;;;;5025123;28;20202;-78
2022/12/23 11:55:57;;;;;;;11.53;9.37;;;7.80;1.00;;;;;;5021144;28;20183;-80
2022/12/23 11:58:24;;;;;;;11.60;9.80;;;7.80;1.00;;;;;;5008027;28;21275;-79
2022/12/23 12:01:04;;;;;;;11.50;9.80;;;7.80;1.00;;;;;;5010279;28;20259;-80
2022/12/23 12:03:33;;;;;;;11.63;10.10;;;8.20;1.00;;;;;;5008147;28;20215;-79
2022/12/23 12:06:04;;;;;;;11.73;10.40;;;7.80;1.00;;;;;;5011550;28;20187;-77
2022/12/23 12:08:34;;;;;;;13.13;11.07;;;7.70;1.00;;;;;;5010999;28;20546;-80
2022/12/23 12:11:23;;;;;;;13.13;11.00;;;7.60;1.00;;;;;;5010565;28;20203;-79
2022/12/23 12:13:58;;;;;;;11.67;10.47;;;7.70;1.00;;;;;;5011443;28;20206;-80
2022/12/23 12:16:30;;;;;;;12.53;10.90;;;7.80;1.00;;;;;;5010438;28;20206;-80
2022/12/23 12:19:04;;;;;;;14.33;10.87;;;7.80;1.00;;;;;;5010559;28;21006;-80
2022/12/23 12:21:33;;;;;;;11.70;10.30;;;8.00;1.00;;;;;;5007204;28;20192;-79
2022/12/23 12:24:18;;;;;;;13.97;10.80;;;8.00;1.00;;;;;;5010731;28;20210;-80
2022/12/23 12:26:49;;;;;;;13.77;10.77;;;7.90;1.00;;;;;;5007056;28;20218;-79
2022/12/23 12:29:44;;;;;;;12.83;10.50;;;7.90;1.00;;;;;;5023768;28;20326;-79
2022/12/23 12:32:37;;;;;;;13.07;10.50;;;7.90;1.00;;;;;;5005672;28;20207;-80
2022/12/23 12:35:13;;;;;;;12.20;10.07;;;7.90;1.00;;;;;;5010394;28;20222;-79
2022/12/23 12:37:58;;;;;;;12.37;10.80;;;7.80;1.00;;;;;;5010315;28;20179;-80
2022/12/23 12:40:37;;;;;;;12.10;10.27;;;7.80;1.00;;;;;;5009401;28;21227;-80
2022/12/23 12:43:30;;;;;;;12.63;9.83;;;7.80;1.00;;;;;;5008914;28;20179;-79
2022/12/23 12:46:10;;;;;;;13.50;10.80;;;7.80;1.00;;;;;;5009980;28;20176;-78
2022/12/23 12:49:37;;;;;;;11.43;9.57;;;7.80;1.00;;;;;;5025179;28;20183;-80
2022/12/23 12:52:19;;;;;;;13.63;9.83;;;7.80;1.00;;;;;;4970071;28;20211;-79
2022/12/23 12:54:53;;;;;;;13.50;10.37;;;7.80;1.00;;;;;;5011742;28;20211;-79
2022/12/23 12:57:21;;;;;;;15.13;11.40;;;7.20;1.00;;;;;;5010896;28;20176;-81
2022/12/23 12:59:49;;;;;;;13.00;10.63;;;7.70;1.00;;;;;;5010174;28;20195;-80
2022/12/23 13:02:39;;;;;;;14.80;12.17;;;7.80;1.00;;;;;;5010617;28;20187;-80
2022/12/23 13:05:22;;;;;;;13.87;10.87;;;7.80;1.00;;;;;;5011291;28;21213;-80
2022/12/23 13:08:07;;;;;;;16.93;11.53;;;7.80;1.00;;;;;;5012079;28;20187;-79
2022/12/23 13:10:58;;;;;;;12.30;10.33;;;7.80;1.00;;;;;;5009995;28;20208;-79
2022/12/23 13:13:52;;;;;;;12.60;9.43;;;7.80;1.00;;;;;;5010695;28;20208;-79
2022/12/23 13:16:35;;;;;;;12.13;9.87;;;7.80;1.00;;;;;;4997006;28;20180;-77
2022/12/23 13:19:40;;;;;;;12.90;9.90;;;7.80;1.00;;;;;;5024633;28;20307;-80
2022/12/23 13:22:16;;;;;;;12.63;9.67;;;7.80;1.00;;;;;;5009477;28;20657;-78
2022/12/23 13:25:04;;;;;;;12.60;10.13;;;7.80;1.00;;;;;;5024310;28;20811;-79
2022/12/23 13:27:33;;;;;;;14.43;12.10;;;7.80;1.00;;;;;;5022527;28;20723;-79
2022/12/23 13:30:20;;;;;;;12.90;10.13;;;8.20;1.00;;;;;;5004081;28;20208;-79